createdAt,value
2018-06-03T04:03:16.399Z,4.90
2018-06-03T04:05:45.212Z,8.80
2018-06-03T04:08:14.068Z,4.80
2018-06-03T04:10:43.772Z,5.50
2018-06-03T04:13:13.711Z,4.83
2018-06-03T04:15:42.729Z,3.97
2018-06-03T04:18:11.580Z,5.17
2018-06-03T04:20:41.211Z,4.93
2018-06-03T04:23:10.041Z,4.60
2018-06-03T04:25:38.896Z,8.23
2018-06-03T04:28:07.723Z,4.73
2018-06-03T04:30:36.568Z,4.03
2018-06-03T04:33:05.407Z,5.23
2018-06-03T04:35:34.217Z,5.67
2018-06-03T04:38:03.061Z,4.87
2018-06-03T04:40:31.887Z,9.83
2018-06-03T04:43:00.734Z,3.90
2018-06-03T04:45:29.555Z,4.10
2018-06-03T04:47:58.427Z,3.93
2018-06-03T04:50:27.236Z,4.43
2018-06-03T04:52:56.061Z,3.87
2018-06-03T04:55:25.914Z,4.30
2018-06-03T04:57:54.741Z,5.43
2018-06-03T05:00:23.581Z,4.37
2018-06-03T05:02:52.703Z,5.77
2018-06-03T05:05:21.544Z,3.93
2018-06-03T05:07:51.266Z,6.70
2018-06-03T05:10:20.935Z,3.27
2018-06-03T05:12:49.757Z,8.17
2018-06-03T05:15:19.598Z,5.10
2018-06-03T05:17:48.421Z,4.73
2018-06-03T05:20:16.920Z,4.43
2018-06-03T05:22:46.069Z,7.50
2018-06-03T05:25:14.914Z,4.27
2018-06-03T05:27:43.735Z,5.37
2018-06-03T05:30:13.571Z,4.33
2018-06-03T05:32:42.395Z,7.70
2018-06-03T05:35:11.231Z,9.20
2018-06-03T05:37:41.069Z,3.47
2018-06-03T05:40:09.947Z,3.90
2018-06-03T05:42:38.859Z,3.93
2018-06-03T05:45:07.755Z,4.80
2018-06-03T05:47:36.547Z,5.20
2018-06-03T05:50:05.013Z,3.27
2018-06-03T05:52:34.061Z,3.60
2018-06-03T05:55:03.923Z,3.90
2018-06-03T05:57:32.731Z,2.93
2018-06-03T06:00:01.565Z,3.57
2018-06-03T06:02:30.399Z,5.03
2018-06-03T06:04:59.235Z,4.13
2018-06-03T06:07:28.047Z,4.23
2018-06-03T06:09:56.888Z,9.20
2018-06-03T06:12:25.714Z,4.17
2018-06-03T06:14:55.150Z,7.80
2018-06-03T06:17:24.394Z,3.90
2018-06-03T06:19:53.219Z,3.20
2018-06-03T06:22:23.080Z,7.73
2018-06-03T06:24:52.615Z,6.17
2018-06-03T06:27:22.591Z,9.50
2018-06-03T06:29:55.087Z,5.47
2018-06-03T06:32:24.435Z,9.40
2018-06-03T06:34:55.304Z,7.33
2018-06-03T06:37:26.613Z,5.47
2018-06-03T06:39:56.864Z,5.80
2018-06-03T06:42:26.812Z,9.50
2018-06-03T06:44:55.655Z,5.63
2018-06-03T06:47:28.968Z,6.33
2018-06-03T06:49:58.544Z,5.07
2018-06-03T06:52:27.548Z,5.67
2018-06-03T06:55:00.460Z,5.70
2018-06-03T06:57:33.260Z,6.63
2018-06-03T07:00:06.856Z,5.00
2018-06-03T07:02:56.139Z,5.10
2018-06-03T07:08:30.097Z,3.87
2018-06-03T07:11:00.040Z,6.10
2018-06-03T07:13:29.746Z,3.97
2018-06-03T07:15:58.719Z,3.70
2018-06-03T07:18:29.566Z,5.93
2018-06-03T07:23:50.511Z,3.87
2018-06-03T07:30:24.525Z,5.90
2018-06-03T07:32:54.215Z,3.53
2018-06-03T07:35:24.076Z,5.40
2018-06-03T07:37:56.151Z,4.10
2018-06-03T07:40:32.481Z,3.90
2018-06-03T07:43:22.326Z,3.00
2018-06-03T07:48:31.615Z,4.10
2018-06-03T07:51:16.704Z,4.27
2018-06-03T07:56:33.517Z,3.50
2018-06-03T07:59:17.712Z,3.63
2018-06-03T08:01:51.986Z,7.30
2018-06-03T08:04:21.191Z,4.63
2018-06-03T08:06:50.016Z,4.47
2018-06-03T08:09:19.415Z,5.40
2018-06-03T08:11:48.684Z,3.70
2018-06-03T08:14:17.648Z,4.90
2018-06-03T08:16:46.485Z,5.67
2018-06-03T08:19:15.332Z,4.53
2018-06-03T08:21:44.925Z,4.47
2018-06-03T08:24:14.740Z,3.43
2018-06-03T08:26:44.163Z,3.80
2018-06-03T08:29:12.796Z,6.00
2018-06-03T08:31:42.094Z,5.87
2018-06-03T08:34:11.809Z,4.60
2018-06-03T08:36:41.294Z,3.17
2018-06-03T08:39:10.178Z,3.30
2018-06-03T08:41:39.660Z,3.13
2018-06-03T08:44:09.079Z,3.13
2018-06-03T08:46:38.312Z,3.57
2018-06-03T08:49:07.240Z,6.00
2018-06-03T08:51:36.976Z,3.23
2018-06-03T08:54:05.960Z,2.93
2018-06-03T08:56:34.833Z,2.73
2018-06-03T08:59:04.740Z,3.07
2018-06-03T09:01:33.601Z,3.30
2018-06-03T09:04:02.432Z,2.70
2018-06-03T09:06:32.092Z,2.37
2018-06-03T09:09:00.938Z,2.77
2018-06-03T09:11:29.897Z,1.80
2018-06-03T09:13:58.728Z,2.20
2018-06-03T09:16:27.533Z,3.63
2018-06-03T09:18:56.887Z,3.70
2018-06-03T09:21:25.929Z,1.90
2018-06-03T09:23:55.388Z,1.77
2018-06-03T09:26:24.596Z,2.27
2018-06-03T09:28:53.580Z,3.07
2018-06-03T09:31:23.952Z,3.23
2018-06-03T09:33:54.316Z,2.27
2018-06-03T09:36:23.979Z,3.10
2018-06-03T09:38:52.983Z,2.40
2018-06-03T09:41:22.644Z,2.70
2018-06-03T09:43:52.773Z,2.23
2018-06-03T09:46:21.604Z,4.63
2018-06-03T09:48:50.455Z,2.30
2018-06-03T09:51:19.957Z,2.53
2018-06-03T09:53:49.819Z,2.03
2018-06-03T09:56:19.940Z,4.80
2018-06-03T09:58:48.749Z,2.00
2018-06-03T10:01:23.628Z,1.70
2018-06-03T10:03:56.235Z,2.20
2018-06-03T10:06:25.340Z,2.00
2018-06-03T10:08:55.170Z,1.77
2018-06-03T10:11:23.757Z,2.70
2018-06-03T10:13:53.579Z,2.77
2018-06-03T10:16:22.544Z,3.73
2018-06-03T10:18:51.333Z,1.90
2018-06-03T10:21:22.641Z,3.53
2018-06-03T10:23:51.902Z,2.43
2018-06-03T10:26:20.829Z,4.03
2018-06-03T10:28:49.749Z,2.23
2018-06-03T10:31:18.632Z,2.80
2018-06-03T10:33:48.348Z,1.90
2018-06-03T10:36:18.632Z,2.53
2018-06-03T10:38:47.878Z,5.90
2018-06-03T10:41:16.949Z,2.47
2018-06-03T10:43:45.881Z,3.20
2018-06-03T10:46:14.652Z,3.43
2018-06-03T10:48:44.300Z,6.60
2018-06-03T10:51:13.217Z,2.30
2018-06-03T10:53:42.048Z,2.50
2018-06-03T10:56:12.213Z,5.90
2018-06-03T10:58:40.871Z,3.33
2018-06-03T11:01:09.621Z,5.03
2018-06-03T11:03:38.429Z,3.00
2018-06-03T11:06:07.296Z,2.13
2018-06-03T11:08:36.312Z,3.57
2018-06-03T11:11:05.938Z,2.33
2018-06-03T11:13:34.688Z,2.77
2018-06-03T11:16:03.554Z,2.30
2018-06-03T11:18:32.369Z,5.37
2018-06-03T11:21:01.181Z,3.43
2018-06-03T11:23:30.820Z,3.40
2018-06-03T11:25:59.634Z,4.10
2018-06-03T11:28:29.451Z,2.50
2018-06-03T11:30:58.424Z,3.57
2018-06-03T11:33:28.103Z,2.03
2018-06-03T11:35:57.943Z,3.00
2018-06-03T11:38:26.851Z,2.10
2018-06-03T11:40:55.659Z,5.73
2018-06-03T11:43:25.101Z,2.30
2018-06-03T11:45:54.222Z,2.43
2018-06-03T11:48:23.145Z,2.03
2018-06-03T11:50:54.599Z,2.10
2018-06-03T11:53:23.726Z,2.00
2018-06-03T11:55:52.687Z,1.70
2018-06-03T11:58:32.651Z,2.30
2018-06-03T12:01:01.534Z,2.27
2018-06-03T12:03:30.452Z,1.93
2018-06-03T12:05:59.254Z,2.40
2018-06-03T12:08:28.985Z,2.27
2018-06-03T12:10:58.948Z,2.40
2018-06-03T12:13:27.847Z,4.40
2018-06-03T12:15:56.629Z,2.07
2018-06-03T12:18:26.131Z,1.77
2018-06-03T12:20:55.022Z,2.23
2018-06-03T12:23:23.920Z,2.33
2018-06-03T12:25:52.791Z,3.03
2018-06-03T12:28:22.423Z,3.50
2018-06-03T12:30:52.322Z,4.03
2018-06-03T12:33:21.160Z,2.63
2018-06-03T12:35:49.995Z,3.20
2018-06-03T12:38:18.728Z,3.73
2018-06-03T12:40:47.252Z,2.80
2018-06-03T12:43:16.358Z,2.40
2018-06-03T12:45:45.736Z,2.43
2018-06-03T12:48:15.260Z,2.60
2018-06-03T12:50:46.116Z,2.70
2018-06-03T12:53:14.992Z,2.87
2018-06-03T12:55:43.787Z,1.93
2018-06-03T12:58:12.595Z,3.20
2018-06-03T13:00:42.159Z,2.57
2018-06-03T13:03:10.998Z,4.27
2018-06-03T13:05:41.984Z,1.40
2018-06-03T13:08:11.789Z,2.80
2018-06-03T13:10:40.680Z,2.20
2018-06-03T13:13:09.520Z,2.87
2018-06-03T13:15:38.421Z,3.17
2018-06-03T13:18:07.380Z,6.93
2018-06-03T13:20:36.762Z,2.10
2018-06-03T13:23:05.761Z,8.23
2018-06-03T13:25:34.644Z,4.70
2018-06-03T13:28:04.473Z,2.10
2018-06-03T13:30:33.321Z,3.70
2018-06-03T13:33:02.183Z,2.07
2018-06-03T13:35:31.000Z,1.90
2018-06-03T13:37:59.774Z,2.43
2018-06-03T13:40:28.665Z,1.40
2018-06-03T13:42:57.459Z,2.90
2018-06-03T13:45:26.971Z,1.60
2018-06-03T13:47:55.875Z,1.73
2018-06-03T13:50:24.688Z,3.20
2018-06-03T13:55:33.466Z,1.80
2018-06-03T13:58:03.313Z,2.83
2018-06-03T14:00:32.240Z,2.03
2018-06-03T14:03:01.192Z,1.90
2018-06-03T14:05:30.079Z,1.60
2018-06-03T14:07:58.948Z,6.07
2018-06-03T14:10:28.376Z,2.67
2018-06-03T14:12:59.288Z,1.77
2018-06-03T14:15:41.655Z,2.10
2018-06-03T14:18:10.364Z,5.20
2018-06-03T14:20:39.189Z,2.27
2018-06-03T14:23:07.968Z,4.30
2018-06-03T14:25:37.570Z,2.20
2018-06-03T14:28:07.408Z,3.57
2018-06-03T14:30:36.309Z,3.00
2018-06-03T14:33:05.260Z,2.70
2018-06-03T14:35:34.148Z,2.07
2018-06-03T14:38:03.880Z,3.27
2018-06-03T14:40:33.642Z,3.17
2018-06-03T14:43:02.557Z,3.40
2018-06-03T14:45:31.392Z,1.70
2018-06-03T14:48:00.125Z,2.83
2018-06-03T14:50:29.967Z,3.57
2018-06-03T14:52:59.711Z,4.20
2018-06-03T14:55:28.632Z,3.33
2018-06-03T14:57:58.672Z,2.67
2018-06-03T15:00:27.428Z,7.90
2018-06-03T15:02:56.239Z,3.43
2018-06-03T15:05:25.846Z,2.70
2018-06-03T15:07:55.633Z,2.67
2018-06-03T15:10:24.552Z,2.63
2018-06-03T15:12:54.278Z,6.30
2018-06-03T15:15:23.223Z,3.30
2018-06-03T15:17:52.435Z,2.73
2018-06-03T15:20:44.513Z,3.00
2018-06-03T15:23:13.179Z,2.57
2018-06-03T15:25:42.005Z,2.90
2018-06-03T15:28:11.568Z,2.93
2018-06-03T15:30:40.392Z,3.63
2018-06-03T15:33:09.313Z,2.93
2018-06-03T15:35:39.028Z,3.13
2018-06-03T15:38:08.831Z,6.30
2018-06-03T15:40:38.675Z,3.00
2018-06-03T15:43:07.481Z,4.13
2018-06-03T15:45:36.316Z,5.60
2018-06-03T15:48:05.119Z,3.27
2018-06-03T15:50:34.403Z,5.63
2018-06-03T15:53:03.051Z,2.87
2018-06-03T15:55:31.876Z,3.20
2018-06-03T15:58:01.517Z,3.17
2018-06-03T16:00:31.229Z,3.33
2018-06-03T16:03:00.793Z,4.43
2018-06-03T16:05:30.888Z,3.43
2018-06-03T16:07:59.769Z,3.87
2018-06-03T16:10:28.757Z,2.83
2018-06-03T16:12:58.316Z,3.50
2018-06-03T16:15:27.136Z,3.87
2018-06-03T16:17:55.947Z,3.67
2018-06-03T16:20:25.768Z,5.40
2018-06-03T16:22:55.724Z,3.63
2018-06-03T16:25:26.408Z,2.97
2018-06-03T16:27:56.229Z,6.00
2018-06-03T16:30:26.060Z,3.23
2018-06-03T16:32:55.859Z,9.40
2018-06-03T16:35:24.674Z,6.00
2018-06-03T16:37:53.494Z,3.97
2018-06-03T16:40:22.459Z,3.87
2018-06-03T16:42:51.390Z,3.33
2018-06-03T16:45:20.162Z,3.90
2018-06-03T16:47:49.461Z,4.67
2018-06-03T16:50:18.506Z,4.90
2018-06-03T16:52:47.313Z,5.00
2018-06-03T16:55:16.119Z,4.77
2018-06-03T16:57:44.972Z,4.53
2018-06-03T17:00:13.721Z,7.83
2018-06-03T17:02:42.536Z,4.67
2018-06-03T17:05:12.364Z,4.70
2018-06-03T17:07:42.165Z,3.67
2018-06-03T17:10:12.001Z,4.00
2018-06-03T17:12:40.487Z,4.43
2018-06-03T17:15:09.604Z,4.60
2018-06-03T17:17:38.445Z,3.47
2018-06-03T17:20:08.231Z,4.73
2018-06-03T17:22:37.069Z,6.90
2018-06-03T17:25:05.829Z,5.70
2018-06-03T17:27:34.889Z,4.57
2018-06-03T17:30:03.441Z,6.53
2018-06-03T17:32:33.256Z,4.90
2018-06-03T17:35:02.723Z,3.77
2018-06-03T17:37:31.885Z,5.47
2018-06-03T17:40:00.683Z,5.77
2018-06-03T17:42:29.468Z,3.60
2018-06-03T17:44:58.219Z,4.23
2018-06-03T17:47:28.099Z,6.90
2018-06-03T17:49:57.463Z,4.90
2018-06-03T17:52:25.984Z,5.13
2018-06-03T17:54:54.790Z,6.10
2018-06-03T17:57:23.620Z,5.20
2018-06-03T17:59:52.415Z,7.43
2018-06-03T18:02:21.210Z,6.37
2018-06-03T18:04:50.024Z,4.80
2018-06-03T18:07:18.504Z,5.40
2018-06-03T18:09:47.011Z,4.70
2018-06-03T18:12:15.552Z,7.00
2018-06-03T18:14:44.268Z,7.80
2018-06-03T18:17:13.084Z,6.73
2018-06-03T18:19:41.872Z,5.77
2018-06-03T18:22:11.396Z,6.10
2018-06-03T18:24:41.212Z,7.30
2018-06-03T18:27:10.033Z,5.70
2018-06-03T18:29:38.492Z,5.47
2018-06-03T18:32:06.996Z,5.70
2018-06-03T18:34:35.736Z,5.13
2018-06-03T18:37:05.276Z,6.40
2018-06-03T18:39:34.444Z,7.57
2018-06-03T18:42:03.792Z,13.73
2018-06-03T18:44:32.736Z,8.23
2018-06-03T18:47:01.227Z,6.23
2018-06-03T18:49:30.640Z,7.33
2018-06-03T18:51:59.916Z,10.03
2018-06-03T18:54:28.432Z,11.33
2018-06-03T18:56:57.078Z,9.10
2018-06-03T18:59:26.635Z,45.50
2018-06-03T19:01:56.450Z,39.47
2018-06-03T19:04:25.273Z,20.00
2018-06-03T19:06:54.388Z,11.50
2018-06-03T19:09:23.855Z,11.10
2018-06-03T19:11:52.657Z,6.80
2018-06-03T19:14:21.216Z,6.80
2018-06-03T19:16:50.275Z,6.53
2018-06-03T19:19:19.163Z,7.23
2018-06-03T19:21:48.753Z,6.43
2018-06-03T19:24:17.691Z,6.20
2018-06-03T19:26:46.903Z,5.77
2018-06-03T19:29:15.419Z,6.47
2018-06-03T19:31:44.255Z,10.00
2018-06-03T19:34:13.552Z,5.60
2018-06-03T19:36:43.032Z,11.40
2018-06-03T19:39:12.417Z,7.80
2018-06-03T19:41:41.376Z,8.93
2018-06-03T19:44:11.191Z,8.63
2018-06-03T19:46:40.090Z,7.83
2018-06-03T19:49:08.983Z,11.40
2018-06-03T19:51:38.971Z,7.80
2018-06-03T19:54:08.692Z,5.37
2018-06-03T19:56:38.434Z,8.50
2018-06-03T19:59:08.160Z,6.13
2018-06-03T20:01:37.186Z,5.10
2018-06-03T20:04:06.052Z,7.77
2018-06-03T20:06:34.834Z,5.20
2018-06-03T20:09:04.339Z,13.77
2018-06-03T20:11:34.056Z,11.17
2018-06-03T20:14:03.129Z,5.77
2018-06-03T20:16:32.084Z,6.27
2018-06-03T20:19:01.775Z,8.13
2018-06-03T20:21:30.849Z,5.73
2018-06-03T20:24:00.501Z,8.60
2018-06-03T20:26:30.964Z,5.00
2018-06-03T20:29:00.166Z,4.90
2018-06-03T20:31:30.692Z,5.70
2018-06-03T20:34:00.941Z,6.53
2018-06-03T20:36:29.660Z,5.37
2018-06-03T20:38:58.531Z,5.47
2018-06-03T20:41:27.895Z,8.00
2018-06-03T20:43:56.715Z,8.60
2018-06-03T20:46:25.706Z,5.73
2018-06-03T20:48:54.580Z,7.60
2018-06-03T20:51:24.090Z,8.10
2018-06-03T20:53:53.612Z,10.40
2018-06-03T20:56:22.709Z,13.33
2018-06-03T20:58:51.678Z,16.10
2018-06-03T21:01:21.352Z,11.33
2018-06-03T21:03:51.233Z,10.23
2018-06-03T21:06:20.040Z,13.53
2018-06-03T21:08:48.736Z,13.93
2018-06-03T21:11:17.543Z,9.27
2018-06-03T21:13:47.306Z,6.93
2018-06-03T21:16:17.437Z,9.73
2018-06-03T21:18:46.220Z,21.63
2018-06-03T21:21:15.006Z,10.47
2018-06-03T21:23:43.743Z,11.90
2018-06-03T21:26:12.555Z,10.70
2018-06-03T21:28:41.803Z,9.97
2018-06-03T21:31:10.958Z,9.60
2018-06-03T21:33:40.771Z,7.07
2018-06-03T21:36:11.495Z,10.93
2018-06-03T21:38:41.429Z,8.43
2018-06-03T21:41:11.242Z,7.83
2018-06-03T21:43:40.052Z,7.80
2018-06-03T21:46:11.980Z,9.27
2018-06-03T21:48:58.651Z,9.30
2018-06-03T21:51:29.759Z,12.53
2018-06-03T21:53:59.515Z,24.60
2018-06-03T21:56:28.303Z,7.97
2018-06-03T21:58:57.069Z,6.00
